Skip Navigation LinksHome page > Weather > Current weather Skip Navigation Links

Current Weather

Ronald Reagan Washington National, Washington

For information only: do not use for flight planning or navigation.
Latest weather
Observation time Wednesday, February 22, 2017 2:52 AM EST
Local time Wednesday, February 22, 2017 3:22 AM EST
Flight conditions Visual Meteorological Conditions
Winds
Wind direction South (180°)
Wind speed 8 mph
Visibility 10 mi.
Sky condition
Ceiling 14,000 ft. broken clouds
Cloud layer broken clouds 14,000 ft.
Cloud layer overcast 20,000 ft.
Temperature 46°F
Dewpoint 40°F
Altimeter 30.05 in.Hg
Derived measurements
Relative humidity 79%
Wind chill 42°F
Density altitude -875 ft.
Sea-level pressure 30.05 in.Hg
Remarks
System requires maintenance.
Automated weather observing station with precipitation discriminator.
METAR KDCA 220752Z 18007KT 10SM BKN140 OVC200 08/04 A3005 RMK AO2 SLP177 T00780044 $

Settings

Location code

InnerDrive.Weather 4.0.6144.1 Release CLR 4.0.30319.34209
Copyright ©2015 Inner Drive Technology. All rights reserved. Portions Copyright ©1986-2015 David Braverman.

Find weather

Site navigation


Skip Navigation Links

Place info

Page info

PayPal - The safer, easier way to pay online!

Return home.

Copyright ©2017 Inner Drive Technology. Purveyors of fine, hand-crafted computer software. Page printed 2017-02-22T08:22:40 UTC.